Time;durP1;ratioP1;P1;durP2;ratioP2;P2;SDS_P1;SDS_P2;PMS_P1;PMS_P2;Temp;Humidity;BMP_temperature;BMP_pressure;BME280_temperature;BME280_humidity;BME280_pressure;Samples;Min_cycle;Max_cycle;Signal;HPM_P1;HPM_P2
2022/06/16 00:01:50;;;;;;;8.80;4.50;;;;;;;14.99;59.29;98190.48;106262;1277;24279;-91
2022/06/16 00:04:18;;;;;;;8.40;4.60;;;;;;;14.97;59.43;98191.90;106162;1277;22772;-91
2022/06/16 00:06:46;;;;;;;11.00;5.10;;;;;;;14.95;59.48;98199.14;107741;1276;22736;-91
2022/06/16 00:09:14;;;;;;;9.20;4.20;;;;;;;14.93;59.57;98198.98;106434;1277;22550;-92
2022/06/16 00:11:42;;;;;;;8.90;5.20;;;;;;;14.91;59.55;98200.04;106606;1276;22580;-90
2022/06/16 00:14:10;;;;;;;9.40;5.30;;;;;;;14.88;59.43;98201.33;106269;1277;25703;-90
2022/06/16 00:16:38;;;;;;;11.50;5.50;;;;;;;14.86;59.77;98194.55;106163;1276;25376;-90
2022/06/16 00:19:07;;;;;;;8.70;5.30;;;;;;;14.84;59.93;98193.63;106160;1277;22558;-89
2022/06/16 00:21:35;;;;;;;10.60;5.20;;;;;;;14.82;60.00;98193.47;106006;1276;22622;-89
2022/06/16 00:24:03;;;;;;;9.10;5.40;;;;;;;14.81;59.99;98191.71;106164;1277;22563;-88
2022/06/16 00:26:31;;;;;;;10.60;5.80;;;;;;;14.82;60.07;98186.76;106134;1277;24119;-89
2022/06/16 00:28:59;;;;;;;8.90;5.90;;;;;;;14.80;59.94;98185.17;106219;1277;22569;-90
2022/06/16 00:31:31;;;;;;;7.90;5.80;;;;;;;14.79;59.82;98182.30;106157;1277;22664;-90
2022/06/16 00:33:59;;;;;;;9.40;5.80;;;;;;;14.78;59.95;98175.85;106323;1275;24377;-91
2022/06/16 00:36:27;;;;;;;10.50;5.80;;;;;;;14.76;59.91;98171.35;106221;1277;22678;-90
2022/06/16 00:38:55;;;;;;;10.70;5.40;;;;;;;14.71;59.85;98167.48;106211;1277;23782;-91
2022/06/16 00:41:23;;;;;;;10.30;6.00;;;;;;;14.68;60.03;98164.22;106169;1276;24014;-90
2022/06/16 00:43:51;;;;;;;16.50;6.00;;;;;;;14.66;60.18;98162.06;106260;1277;25463;-90
2022/06/16 00:46:19;;;;;;;10.60;5.90;;;;;;;14.66;60.52;98160.57;106254;1277;22769;-91
2022/06/16 00:48:49;;;;;;;8.80;5.60;;;;;;;14.68;60.48;98155.65;106225;1277;25388;-90
2022/06/16 00:51:21;;;;;;;11.90;5.80;;;;;;;14.71;60.69;98153.55;106209;1277;22531;-91
2022/06/16 00:53:49;;;;;;;8.90;5.80;;;;;;;14.75;60.67;98150.98;106277;1276;22693;-91
2022/06/16 00:56:19;;;;;;;11.00;5.60;;;;;;;14.77;60.84;98149.21;106141;1277;25325;-91
2022/06/16 00:58:53;;;;;;;10.80;5.80;;;;;;;14.78;60.94;98152.65;106103;1276;23205;-91
2022/06/16 01:01:22;;;;;;;9.40;5.70;;;;;;;14.78;60.90;98147.39;106060;1276;24215;-90
2022/06/16 01:06:38;;;;;;;12.10;6.50;;;;;;;14.79;61.11;98145.41;106647;1275;24232;-88
2022/06/16 01:09:11;;;;;;;12.50;6.30;;;;;;;14.78;61.20;98145.44;106218;1277;22542;-88
2022/06/16 01:15:00;;;;;;;8.10;6.00;;;;;;;14.75;61.18;98141.83;106240;1277;25465;-89
2022/06/16 01:17:47;;;;;;;9.60;5.80;;;;;;;14.73;61.15;98140.89;106390;1277;25576;-91
2022/06/16 01:20:45;;;;;;;16.50;6.10;;;;;;;14.80;61.62;98133.43;106485;1277;25200;-85
2022/06/16 01:23:52;;;;;;;11.10;4.90;;;;;;;14.90;61.53;98135.70;106507;1277;25532;-87
2022/06/16 01:26:55;;;;;;;10.60;5.50;;;;;;;15.08;61.82;98131.96;105962;1276;22905;-89
2022/06/16 01:29:45;;;;;;;9.80;5.70;;;;;;;15.17;61.77;98128.32;105875;1281;22994;-89
2022/06/16 01:32:33;;;;;;;9.20;6.00;;;;;;;15.28;61.75;98131.47;105792;1281;22639;-87
2022/06/16 01:35:26;;;;;;;8.80;5.40;;;;;;;15.35;61.63;98130.25;105685;1281;25531;-89
2022/06/16 01:38:06;;;;;;;10.40;5.70;;;;;;;15.41;61.45;98130.70;105858;1281;25293;-90
2022/06/16 01:40:45;;;;;;;8.10;5.80;;;;;;;15.38;61.24;98126.78;105737;1281;22692;-87
2022/06/16 01:43:25;;;;;;;10.00;6.30;;;;;;;15.30;61.18;98131.62;105651;1282;23033;-89
2022/06/16 01:46:06;;;;;;;9.20;6.20;;;;;;;15.20;61.10;98130.23;105890;1281;24422;-87
2022/06/16 01:48:36;;;;;;;10.30;6.30;;;;;;;15.13;61.12;98125.50;105883;1281;24092;-89
2022/06/16 01:51:13;;;;;;;9.60;6.10;;;;;;;15.04;61.16;98124.88;105825;1281;23494;-89
2022/06/16 01:54:17;;;;;;;9.70;5.80;;;;;;;15.01;61.53;98119.94;105883;1281;25453;-86
2022/06/16 01:57:03;;;;;;;11.30;6.50;;;;;;;15.03;61.52;98120.09;105683;1281;22588;-87
2022/06/16 01:59:46;;;;;;;9.80;5.90;;;;;;;15.04;61.61;98116.11;105715;1281;22695;-87
2022/06/16 02:02:17;;;;;;;8.60;6.00;;;;;;;15.11;61.86;98113.25;105955;1276;23225;-86
2022/06/16 02:05:08;;;;;;;10.40;5.80;;;;;;;15.18;61.64;98113.92;106174;1277;24253;-87
2022/06/16 02:07:46;;;;;;;7.80;5.60;;;;;;;15.16;61.59;98110.86;106096;1277;22776;-88
2022/06/16 02:10:35;;;;;;;12.50;6.20;;;;;;;15.18;61.79;98111.92;106124;1275;22627;-89
2022/06/16 02:13:06;;;;;;;8.00;5.90;;;;;;;15.23;61.81;98112.48;106074;1277;22633;-90
2022/06/16 02:15:54;;;;;;;12.50;6.50;;;;;;;15.24;61.70;98111.23;106163;1277;25502;-89
2022/06/16 02:18:33;;;;;;;10.40;6.00;;;;;;;15.22;61.43;98110.54;106076;1276;22611;-88
2022/06/16 02:21:17;;;;;;;11.10;6.40;;;;;;;15.15;61.58;98109.37;106045;1277;22688;-86
2022/06/16 02:23:45;;;;;;;13.50;6.70;;;;;;;15.17;62.32;98111.55;106065;1277;23663;-85
2022/06/16 02:26:15;;;;;;;12.00;5.40;;;;;;;15.31;61.84;98112.36;106164;1277;22756;-85
2022/06/16 02:28:53;;;;;;;10.70;5.80;;;;;;;15.38;61.79;98112.83;105811;1277;22727;-85
2022/06/16 02:31:46;;;;;;;8.70;6.10;;;;;;;15.46;62.36;98114.10;106211;1277;25416;-89
2022/06/16 02:34:24;;;;;;;8.60;5.60;;;;;;;15.60;61.59;98117.14;106007;1277;24386;-86
2022/06/16 02:37:11;;;;;;;13.80;5.30;;;;;;;15.65;62.06;98120.46;105920;1276;22708;-85
2022/06/16 02:39:58;;;;;;;13.90;6.60;;;;;;;15.74;61.55;98125.80;106220;1277;22573;-85
2022/06/16 02:42:31;;;;;;;9.90;6.00;;;;;;;15.63;61.23;98122.98;106227;1277;23261;-85
2022/06/16 02:45:04;;;;;;;10.60;6.90;;;;;;;15.51;61.19;98129.89;106209;1275;25319;-86
2022/06/16 02:47:59;;;;;;;10.20;7.00;;;;;;;15.35;61.53;98128.38;106200;1277;23968;-85
2022/06/16 02:50:42;;;;;;;11.40;6.10;;;;;;;15.34;61.93;98133.09;106105;1276;22609;-84
2022/06/16 02:53:25;;;;;;;10.90;5.60;;;;;;;15.32;62.19;98132.84;106301;1275;22743;-86
2022/06/16 02:55:58;;;;;;;11.10;6.00;;;;;;;15.32;61.71;98132.02;106099;1276;22617;-86
2022/06/16 02:58:29;;;;;;;10.20;5.30;;;;;;;15.27;61.88;98132.47;106028;1277;22643;-85
2022/06/16 03:00:59;;;;;;;7.80;5.60;;;;;;;15.34;62.50;98133.82;106057;1276;24998;-85
2022/06/16 03:03:30;;;;;;;10.80;5.90;;;;;;;15.42;63.11;98131.75;106208;1277;22614;-85
2022/06/16 03:06:02;;;;;;;10.60;6.00;;;;;;;15.64;62.63;98132.98;106217;1277;22649;-84
2022/06/16 03:08:39;;;;;;;8.70;5.60;;;;;;;15.86;63.13;98135.75;106274;1277;22550;-85
2022/06/16 03:11:11;;;;;;;7.90;5.00;;;;;;;16.06;62.54;98140.47;106232;1277;22563;-85
2022/06/16 03:13:42;;;;;;;12.00;7.40;;;;;;;16.26;62.55;98138.67;106224;1277;22616;-85
2022/06/16 03:16:13;;;;;;;10.00;5.80;;;;;;;16.31;62.19;98135.39;106169;1277;22563;-85
2022/06/16 03:18:41;;;;;;;8.50;5.00;;;;;;;16.35;62.04;98137.64;105967;1277;22589;-87
2022/06/16 03:21:09;;;;;;;8.00;5.80;;;;;;;16.51;62.38;98133.20;106700;1277;22591;-85
2022/06/16 03:23:37;;;;;;;8.40;5.40;;;;;;;16.69;61.72;98133.23;106181;1275;23227;-85
2022/06/16 03:26:05;;;;;;;8.30;4.70;;;;;;;16.75;61.51;98130.74;105957;1276;22555;-86
2022/06/16 03:28:35;;;;;;;9.20;5.80;;;;;;;16.89;61.37;98128.77;105965;1276;22547;-85
2022/06/16 03:31:08;;;;;;;8.20;6.40;;;;;;;16.93;60.69;98127.23;106109;1277;22562;-85
2022/06/16 03:33:37;;;;;;;8.20;5.50;;;;;;;17.03;60.68;98124.83;105854;1277;22572;-84
2022/06/16 03:36:05;;;;;;;9.30;5.50;;;;;;;17.02;60.25;98117.36;105906;1276;25342;-85
2022/06/16 03:41:05;;;;;;;7.90;5.60;;;;;;;16.90;60.26;98115.52;106188;1277;22563;-84
2022/06/16 03:43:33;;;;;;;8.30;4.90;;;;;;;16.79;60.60;98118.17;105924;1277;22621;-84
2022/06/16 03:46:12;;;;;;;8.40;5.80;;;;;;;16.86;60.48;98115.59;105907;1275;24418;-84
2022/06/16 03:48:43;;;;;;;6.80;4.80;;;;;;;16.85;60.37;98116.17;105941;1277;22574;-83
2022/06/16 03:51:12;;;;;;;11.30;5.40;;;;;;;16.92;60.51;98113.02;106145;1276;22551;-83
2022/06/16 03:53:42;;;;;;;9.00;6.20;;;;;;;16.97;60.21;98112.89;105955;1277;22564;-85
2022/06/16 03:56:11;;;;;;;9.20;5.60;;;;;;;17.03;60.08;98117.66;106140;1277;24394;-84
2022/06/16 03:58:39;;;;;;;8.60;6.20;;;;;;;17.07;60.22;98115.80;105828;1277;22566;-84
2022/06/16 04:01:08;;;;;;;10.60;5.80;;;;;;;17.10;59.67;98115.02;106150;1277;22542;-84
2022/06/16 04:06:23;;;;;;;7.60;5.40;;;;;;;16.93;59.61;98113.83;106107;1277;24418;-84
2022/06/16 04:08:52;;;;;;;7.00;5.60;;;;;;;16.88;59.67;98114.52;105820;1277;24408;-84
2022/06/16 04:11:26;;;;;;;7.90;5.50;;;;;;;16.85;59.84;98114.16;106227;1277;22622;-84
2022/06/16 04:14:08;;;;;;;9.00;5.90;;;;;;;16.84;59.80;98113.91;106081;1277;24359;-84
2022/06/16 04:16:49;;;;;;;12.10;6.20;;;;;;;16.81;59.96;98111.30;106007;1277;22568;-84
2022/06/16 04:19:25;;;;;;;10.30;6.10;;;;;;;16.73;59.78;98111.86;106000;1277;22581;-83
2022/06/16 04:21:53;;;;;;;8.30;5.60;;;;;;;16.72;60.05;98110.50;105962;1277;22730;-84
2022/06/16 04:24:38;;;;;;;10.10;4.80;;;;;;;16.82;59.95;98110.42;106028;1277;24435;-86
2022/06/16 04:27:06;;;;;;;8.40;5.80;;;;;;;16.91;60.13;98107.84;105935;1276;24106;-85
2022/06/16 04:29:34;;;;;;;8.30;5.40;;;;;;;16.88;59.59;98105.80;106029;1277;23858;-86
2022/06/16 04:32:03;;;;;;;8.40;5.90;;;;;;;16.78;59.84;98108.71;106032;1277;22704;-86
2022/06/16 04:34:48;;;;;;;9.40;5.70;;;;;;;16.68;59.81;98107.68;106011;1277;22648;-85
2022/06/16 04:37:18;;;;;;;9.60;6.20;;;;;;;16.70;59.87;98103.89;106035;1277;22563;-84
2022/06/16 04:39:52;;;;;;;11.10;6.20;;;;;;;16.78;59.93;98104.03;105907;1276;24302;-85
2022/06/16 04:42:20;;;;;;;10.60;6.20;;;;;;;16.79;59.72;98105.95;105821;1277;22553;-86
2022/06/16 04:44:48;;;;;;;10.90;7.70;;;;;;;16.82;59.84;98106.89;105869;1277;25435;-84
2022/06/16 04:47:17;;;;;;;13.30;7.30;;;;;;;16.86;59.79;98106.20;106149;1277;22587;-84
2022/06/16 04:49:48;;;;;;;10.00;5.80;;;;;;;16.89;60.03;98104.67;106186;1277;22583;-85
2022/06/16 04:52:18;;;;;;;8.30;6.10;;;;;;;16.99;59.95;98106.42;106185;1277;22704;-85
2022/06/16 04:54:50;;;;;;;8.90;6.90;;;;;;;17.12;60.14;98108.15;106173;1277;22554;-84
2022/06/16 04:57:50;;;;;;;10.80;6.60;;;;;;;17.23;59.89;98113.32;105974;1277;22546;-85
2022/06/16 05:00:54;;;;;;;12.90;7.20;;;;;;;17.36;59.76;98108.06;105415;1277;25495;-84
2022/06/16 05:04:15;;;;;;;8.90;6.20;;;;;;;17.39;59.80;98108.56;105777;1277;22540;-85
2022/06/16 05:07:06;;;;;;;11.70;6.50;;;;;;;17.49;59.64;98109.98;106090;1277;22560;-86
2022/06/16 05:09:57;;;;;;;10.10;7.70;;;;;;;17.52;59.67;98104.70;105964;1276;22658;-85
2022/06/16 05:12:38;;;;;;;10.60;5.80;;;;;;;17.59;59.51;98101.11;106009;1277;22708;-84
2022/06/16 05:15:26;;;;;;;8.30;6.20;;;;;;;17.63;59.85;98103.66;106053;1277;22547;-84
2022/06/16 05:18:12;;;;;;;9.10;6.40;;;;;;;17.83;59.52;98103.85;106080;1274;22539;-85
2022/06/16 05:21:07;;;;;;;11.80;6.30;;;;;;;17.84;59.08;98102.10;106111;1277;22693;-84
2022/06/16 05:23:54;;;;;;;11.80;6.10;;;;;;;17.86;59.02;98106.21;106017;1277;22561;-84
2022/06/16 05:26:54;;;;;;;7.90;5.50;;;;;;;17.85;59.09;98102.39;106083;1277;22572;-84
2022/06/16 05:29:42;;;;;;;9.60;5.60;;;;;;;17.87;59.01;98099.63;106199;1276;22556;-84
2022/06/16 05:32:16;;;;;;;8.60;5.70;;;;;;;17.93;59.03;98098.64;106133;1276;22847;-84
2022/06/16 05:35:00;;;;;;;8.90;4.80;;;;;;;18.01;58.75;98099.19;106183;1277;22559;-84
2022/06/16 05:37:42;;;;;;;7.80;5.30;;;;;;;18.01;58.92;98094.84;105978;1276;22585;-84
2022/06/16 05:40:41;;;;;;;8.80;5.70;;;;;;;18.02;58.88;98094.00;106362;1277;22694;-84
2022/06/16 05:43:21;;;;;;;9.50;5.60;;;;;;;18.09;58.88;98097.11;106876;1277;25282;-84
2022/06/16 05:46:19;;;;;;;9.80;5.30;;;;;;;18.28;58.95;98093.14;106043;1276;24218;-83
2022/06/16 05:49:00;;;;;;;10.10;5.60;;;;;;;18.42;58.87;98085.14;106167;1277;22556;-84
2022/06/16 05:51:28;;;;;;;8.30;5.50;;;;;;;18.52;58.83;98086.84;105886;1277;22536;-84
2022/06/16 05:54:02;;;;;;;10.70;5.70;;;;;;;18.65;58.85;98086.96;106192;1277;22564;-84
2022/06/16 05:56:33;;;;;;;12.10;5.60;;;;;;;18.76;58.68;98088.84;105891;1277;22586;-83
2022/06/16 05:59:02;;;;;;;10.10;5.30;;;;;;;18.88;58.47;98086.14;106157;1277;23204;-84
2022/06/16 06:01:38;;;;;;;7.60;5.40;;;;;;;18.98;58.57;98082.73;106247;1277;22672;-83
2022/06/16 06:04:08;;;;;;;7.70;5.20;;;;;;;19.12;58.44;98081.77;106068;1277;25309;-84
2022/06/16 06:06:38;;;;;;;10.00;5.80;;;;;;;19.24;58.18;98083.11;106057;1276;22565;-83
2022/06/16 06:17:32;;;;;;;7.10;4.80;;;;;;;19.64;57.20;98077.84;106217;1277;22558;-83
2022/06/16 06:20:04;;;;;;;7.40;4.80;;;;;;;19.67;57.07;98080.77;106156;1277;22618;-83
2022/06/16 06:22:32;;;;;;;8.00;5.20;;;;;;;19.77;56.87;98083.80;106068;1277;22604;-83
2022/06/16 06:25:08;;;;;;;6.80;4.60;;;;;;;19.86;56.38;98083.48;106060;1277;22694;-83
2022/06/16 06:27:39;;;;;;;6.70;4.50;;;;;;;19.89;56.22;98084.52;106057;1277;24419;-83
2022/06/16 06:30:23;;;;;;;10.20;5.30;;;;;;;19.97;55.79;98082.02;106073;1276;22898;-83
2022/06/16 06:32:52;;;;;;;;;;;;;;;20.05;55.95;98076.80;105891;1277;22544;-85
2022/06/16 06:35:20;;;;;;;6.90;4.70;;;;;;;20.11;55.94;98078.66;106013;1277;25334;-84
2022/06/16 06:37:52;;;;;;;6.20;4.50;;;;;;;20.22;55.85;98080.77;106051;1277;22731;-84
2022/06/16 06:40:34;;;;;;;6.80;5.00;;;;;;;20.35;55.81;98084.88;106069;1275;22699;-84
2022/06/16 06:43:02;;;;;;;7.10;5.00;;;;;;;20.46;55.44;98081.66;106153;1277;22680;-84
2022/06/16 06:45:34;;;;;;;7.20;5.20;;;;;;;20.54;55.34;98078.86;106122;1277;22625;-83
2022/06/16 06:48:04;;;;;;;7.10;4.70;;;;;;;20.62;55.29;98074.59;106086;1277;23948;-84
2022/06/16 06:50:36;;;;;;;8.90;4.20;;;;;;;20.66;54.86;98075.91;106127;1277;22628;-83
2022/06/16 06:53:06;;;;;;;10.40;5.00;;;;;;;20.75;54.90;98077.19;106425;1275;22655;-83
2022/06/16 06:55:38;;;;;;;7.30;4.80;;;;;;;20.82;54.96;98073.73;106186;1277;24214;-83
2022/06/16 06:58:07;;;;;;;9.40;5.30;;;;;;;20.94;54.65;98068.55;106260;1277;24301;-82
2022/06/16 07:00:35;;;;;;;7.00;5.00;;;;;;;21.05;54.59;98066.02;105955;1277;22553;-84
2022/06/16 07:03:03;;;;;;;10.10;4.80;;;;;;;21.19;54.78;98060.08;106149;1276;23400;-83
2022/06/16 07:05:30;;;;;;;8.70;5.10;;;;;;;21.29;54.46;98060.17;106070;1276;22573;-82
2022/06/16 07:07:59;;;;;;;6.60;4.60;;;;;;;21.38;54.21;98057.22;106086;1277;24570;-82
2022/06/16 07:10:27;;;;;;;10.10;4.70;;;;;;;21.53;54.31;98058.00;106055;1277;23334;-82
2022/06/16 07:12:55;;;;;;;6.60;4.70;;;;;;;21.67;54.35;98056.98;106134;1275;25458;-82
2022/06/16 07:15:24;;;;;;;7.50;4.90;;;;;;;21.77;54.29;98055.89;106113;1277;22605;-84
2022/06/16 07:17:52;;;;;;;8.10;4.90;;;;;;;21.90;54.02;98052.95;106196;1276;22553;-82
2022/06/16 07:20:20;;;;;;;7.60;4.40;;;;;;;21.97;53.68;98055.16;106161;1277;24243;-83
2022/06/16 07:22:48;;;;;;;8.30;4.50;;;;;;;22.06;53.55;98052.30;106046;1277;22635;-83
2022/06/16 07:25:17;;;;;;;6.50;3.90;;;;;;;22.13;53.16;98052.48;106049;1277;22614;-83
2022/06/16 07:27:45;;;;;;;6.90;4.70;;;;;;;22.18;53.10;98050.67;106026;1277;22642;-82
2022/06/16 07:30:16;;;;;;;7.00;4.60;;;;;;;22.27;52.79;98053.95;106024;1277;22659;-83
2022/06/16 07:32:46;;;;;;;9.40;4.60;;;;;;;22.34;52.94;98051.52;106043;1276;25312;-82
2022/06/16 07:35:17;;;;;;;7.80;4.40;;;;;;;22.49;52.74;98048.02;106189;1277;22819;-83
2022/06/16 07:37:44;;;;;;;5.90;4.00;;;;;;;22.55;52.42;98047.86;106045;1276;24215;-82
2022/06/16 07:40:15;;;;;;;8.70;5.10;;;;;;;22.67;51.99;98048.01;106153;1277;22756;-84
2022/06/16 07:42:44;;;;;;;6.90;4.60;;;;;;;22.74;51.86;98047.83;105951;1276;22570;-84
2022/06/16 07:45:13;;;;;;;5.50;3.70;;;;;;;22.83;51.81;98046.61;106169;1277;25558;-84
2022/06/16 07:47:42;;;;;;;6.50;4.40;;;;;;;22.91;51.53;98046.06;106049;1277;22704;-82
2022/06/16 07:50:12;;;;;;;7.90;3.30;;;;;;;22.94;49.96;98045.70;106054;1277;25615;-83
2022/06/16 07:52:40;;;;;;;5.70;3.40;;;;;;;22.97;50.51;98044.73;106058;1277;22616;-82
2022/06/16 07:55:10;;;;;;;6.70;4.20;;;;;;;23.07;49.07;98044.13;106058;1277;22619;-83
2022/06/16 07:57:43;;;;;;;5.90;3.00;;;;;;;23.14;49.44;98039.16;106047;1276;22619;-84
2022/06/16 08:00:16;;;;;;;5.00;2.90;;;;;;;23.21;48.81;98036.65;106104;1277;22614;-83
2022/06/16 08:02:44;;;;;;;5.80;3.10;;;;;;;23.25;47.65;98038.88;106039;1277;22789;-85
2022/06/16 08:05:13;;;;;;;4.20;2.70;;;;;;;23.32;48.00;98039.48;106547;1277;22621;-84
2022/06/16 08:07:41;;;;;;;6.60;2.80;;;;;;;23.40;48.24;98038.77;106082;1277;25370;-85
2022/06/16 08:10:15;;;;;;;4.80;3.10;;;;;;;23.51;47.38;98032.98;106044;1277;23930;-82
2022/06/16 08:12:43;;;;;;;6.80;3.30;;;;;;;23.48;46.53;98034.20;105979;1277;23372;-82
2022/06/16 08:15:12;;;;;;;10.00;3.30;;;;;;;23.43;46.94;98033.86;105932;1277;24368;-83
2022/06/16 08:17:47;;;;;;;22.60;4.30;;;;;;;23.40;45.22;98038.14;106223;1277;25526;-83
2022/06/16 08:20:15;;;;;;;5.20;3.20;;;;;;;23.39;45.89;98033.96;106213;1276;25231;-83
2022/06/16 08:22:43;;;;;;;6.60;3.60;;;;;;;23.47;46.09;98033.09;106102;1277;23220;-84
2022/06/16 08:25:12;;;;;;;7.10;3.90;;;;;;;23.54;45.24;98038.02;106135;1276;22637;-83
2022/06/16 08:27:43;;;;;;;7.40;3.80;;;;;;;23.53;45.69;98035.17;105913;1277;22758;-84
2022/06/16 08:30:16;;;;;;;4.90;3.50;;;;;;;23.64;45.62;98034.88;106167;1277;22622;-85
2022/06/16 08:32:44;;;;;;;5.80;3.90;;;;;;;23.76;45.57;98032.00;106002;1274;22693;-84
2022/06/16 08:35:12;;;;;;;6.60;3.60;;;;;;;23.90;45.77;98028.63;106160;1277;24082;-83
2022/06/16 08:37:40;;;;;;;13.30;4.10;;;;;;;24.06;44.81;98031.78;106075;1277;22547;-84
2022/06/16 08:40:10;;;;;;;6.40;3.80;;;;;;;24.09;44.55;98028.73;106038;1277;25235;-82
2022/06/16 08:42:45;;;;;;;8.00;3.70;;;;;;;24.18;44.73;98023.83;106104;1277;22544;-83
2022/06/16 08:45:26;;;;;;;7.90;3.30;;;;;;;24.28;44.73;98020.58;106114;1277;22595;-84
2022/06/16 08:48:23;;;;;;;5.30;3.10;;;;;;;24.40;44.77;98018.26;106098;1277;24114;-83
2022/06/16 08:50:58;;;;;;;10.50;3.30;;;;;;;24.48;43.24;98016.42;106041;1277;22730;-83
2022/06/16 08:53:56;;;;;;;5.20;3.40;;;;;;;24.43;42.84;98018.36;106040;1276;22664;-82
2022/06/16 08:56:46;;;;;;;5.00;3.00;;;;;;;24.44;43.07;98023.59;106073;1277;22557;-83
2022/06/16 08:59:48;;;;;;;4.60;2.50;;;;;;;24.41;43.41;98017.40;106170;1277;22563;-83
2022/06/16 09:02:55;;;;;;;7.60;3.80;;;;;;;24.44;42.38;98023.27;106052;1277;22547;-84
2022/06/16 09:05:42;;;;;;;6.30;3.70;;;;;;;24.48;42.49;98019.02;105835;1277;22541;-84
2022/06/16 09:08:22;;;;;;;5.60;3.60;;;;;;;24.61;42.34;98016.70;106099;1277;22650;-83
2022/06/16 09:11:27;;;;;;;4.70;2.90;;;;;;;24.77;42.31;98018.48;106019;1276;24185;-86
2022/06/16 09:14:00;;;;;;;5.50;3.30;;;;;;;24.86;41.41;98014.96;106372;1277;22689;-84
2022/06/16 09:16:36;;;;;;;7.40;3.70;;;;;;;24.75;41.30;98013.04;106481;1276;25277;-85
2022/06/16 09:19:04;;;;;;;6.30;3.40;;;;;;;24.78;41.74;98010.30;106378;1276;22620;-84
2022/06/16 09:21:35;;;;;;;6.20;3.60;;;;;;;24.89;41.33;98009.67;106431;1276;22620;-86
2022/06/16 09:24:12;;;;;;;8.00;3.40;;;;;;;24.93;41.94;98015.60;106500;1277;26514;-86
2022/06/16 09:26:59;;;;;;;7.90;3.90;;;;;;;25.00;41.92;98017.03;106261;1277;24332;-86
2022/06/16 09:29:53;;;;;;;6.90;3.80;;;;;;;25.12;42.29;98013.67;106514;1277;22583;-87
2022/06/16 09:32:27;;;;;;;6.10;3.70;;;;;;;25.22;41.65;98015.27;106210;1276;22877;-82
2022/06/16 09:35:10;;;;;;;5.60;3.30;;;;;;;25.25;42.47;98011.23;106386;1277;22548;-84
2022/06/16 09:37:49;;;;;;;7.30;3.30;;;;;;;25.46;41.47;98012.66;106242;1277;22609;-86
2022/06/16 09:40:29;;;;;;;6.70;3.20;;;;;;;25.50;41.16;98011.56;106071;1277;22867;-85
2022/06/16 09:43:12;;;;;;;7.40;3.20;;;;;;;25.51;41.14;98009.60;106659;1277;25221;-83
2022/06/16 09:45:53;;;;;;;6.90;3.30;;;;;;;25.58;41.07;98014.63;106198;1277;22627;-82
2022/06/16 09:48:30;;;;;;;4.20;2.70;;;;;;;25.59;41.39;98011.72;106234;1275;22688;-87
2022/06/16 09:51:01;;;;;;;6.90;3.40;;;;;;;25.71;41.21;98012.09;106200;1277;22786;-89
2022/06/16 09:53:37;;;;;;;7.50;3.50;;;;;;;25.74;40.11;98010.75;106288;1277;22562;-84
2022/06/16 09:56:17;;;;;;;4.80;3.00;;;;;;;25.77;39.91;98010.51;106238;1277;22621;-83
2022/06/16 09:59:09;;;;;;;8.10;3.30;;;;;;;25.85;39.83;98009.48;106402;1276;22554;-87
2022/06/16 10:01:49;;;;;;;4.70;2.70;;;;;;;25.92;39.44;98009.08;106537;1277;22538;-85
2022/06/16 10:04:18;;;;;;;4.40;2.90;;;;;;;25.81;38.07;98011.30;106494;1277;23382;-86
2022/06/16 10:07:30;;;;;;;6.60;3.30;;;;;;;25.76;38.54;98007.27;106614;1276;22687;-85
2022/06/16 10:10:28;;;;;;;4.90;3.10;;;;;;;25.76;38.09;98007.66;106587;1278;25352;-87
2022/06/16 10:13:25;;;;;;;3.90;2.30;;;;;;;25.67;38.71;98005.79;106706;1281;25269;-85
2022/06/16 10:16:16;;;;;;;6.50;2.70;;;;;;;25.86;38.41;98001.28;106187;1281;22628;-85
2022/06/16 10:18:46;;;;;;;6.80;2.90;;;;;;;26.07;38.31;98003.36;106302;1281;23278;-87
2022/06/16 10:21:16;;;;;;;5.60;2.70;;;;;;;26.23;37.96;97995.88;106213;1281;214165;-89
2022/06/16 10:23:51;;;;;;;6.30;2.70;;;;;;;26.36;37.76;97998.13;106832;1281;22515;-90
2022/06/16 10:26:20;;;;;;;3.10;2.40;;;;;;;26.36;37.77;97994.10;107734;1281;22543;-87
2022/06/16 10:29:03;;;;;;;4.70;2.50;;;;;;;26.42;37.67;97993.84;107084;1281;22679;-89
2022/06/16 10:31:45;;;;;;;4.10;2.20;;;;;;;26.68;36.86;97993.81;107478;1281;25449;-87
2022/06/16 10:34:26;;;;;;;4.60;2.20;;;;;;;26.73;35.84;97986.73;105965;1281;24296;-87
2022/06/16 10:41:59;;;;;;;3.60;2.30;;;;;;;26.61;36.10;97993.45;105823;1281;22578;-85
2022/06/16 10:48:09;;;;;;;3.90;2.50;;;;;;;26.67;36.30;97993.65;106352;1277;23299;-87
2022/06/16 10:50:41;;;;;;;3.80;2.00;;;;;;;26.74;35.35;97995.12;106291;1277;22887;-89
2022/06/16 10:53:59;;;;;;;4.20;2.40;;;;;;;26.68;34.80;97990.57;106214;1277;23064;-89
2022/06/16 10:56:27;;;;;;;5.40;2.20;;;;;;;26.59;33.50;97996.94;106032;1276;22562;-86
2022/06/16 10:59:01;;;;;;;4.40;2.40;;;;;;;26.51;32.88;97994.13;106077;1276;22574;-86
2022/06/16 11:05:18;;;;;;;5.20;2.20;;;;;;;26.75;33.95;97984.92;106161;1277;22537;-89
2022/06/16 11:07:47;;;;;;;4.80;2.60;;;;;;;26.86;33.83;97985.09;106211;1277;24003;-86
2022/06/16 11:10:33;;;;;;;6.70;3.00;;;;;;;26.93;32.67;97983.77;106213;1277;22714;-87
2022/06/16 11:13:03;;;;;;;2.70;2.00;;;;;;;26.91;32.57;97982.21;107109;1277;22573;-85
2022/06/16 11:15:38;;;;;;;5.10;2.00;;;;;;;26.82;32.98;97979.27;107356;1276;24269;-86
2022/06/16 11:18:13;;;;;;;5.80;2.60;;;;;;;26.86;33.36;97972.69;106971;1277;24237;-87
2022/06/16 11:20:44;;;;;;;4.20;2.20;;;;;;;27.04;33.89;97976.51;106854;1277;22584;-87
2022/06/16 11:23:44;;;;;;;3.00;2.10;;;;;;;27.07;33.70;97976.87;106812;1277;24287;-87
2022/06/16 11:26:33;;;;;;;2.80;2.00;;;;;;;26.73;33.67;97977.73;106107;1284;25324;-86
2022/06/16 11:29:11;;;;;;;6.40;3.00;;;;;;;26.88;34.28;97974.56;106118;1284;22556;-87
2022/06/16 11:32:17;;;;;;;4.50;2.50;;;;;;;27.15;34.34;97971.22;105858;1284;22570;-91
2022/06/16 11:34:46;;;;;;;4.10;2.50;;;;;;;27.41;34.84;97965.55;105998;1285;22735;-89
2022/06/16 11:37:55;;;;;;;4.20;2.30;;;;;;;27.74;33.63;97970.70;106105;1285;22715;-88
2022/06/16 11:40:32;;;;;;;5.90;2.10;;;;;;;27.79;33.03;97961.25;105370;1291;22763;-88
2022/06/16 11:43:10;;;;;;;3.50;2.00;;;;;;;27.81;32.91;97956.66;105367;1291;22565;-87
2022/06/16 11:46:01;;;;;;;3.80;2.30;;;;;;;27.94;33.19;97957.30;105349;1290;22712;-87
2022/06/16 11:48:43;;;;;;;3.50;2.40;;;;;;;28.01;32.80;97954.45;105193;1291;24165;-88
2022/06/16 11:51:24;;;;;;;5.70;2.10;;;;;;;27.96;32.65;97951.65;105363;1291;24318;-86
2022/06/16 11:54:30;;;;;;;4.20;2.00;;;;;;;27.96;32.47;97946.50;105688;1290;22938;-90
2022/06/16 11:57:16;;;;;;;5.20;2.20;;;;;;;27.87;32.88;97945.26;105490;1290;25587;-90
2022/06/16 12:00:05;;;;;;;3.20;2.00;;;;;;;27.89;33.08;97939.64;105578;1290;22736;-88
2022/06/16 12:02:58;;;;;;;7.10;2.90;;;;;;;28.01;33.28;97936.15;105436;1284;22559;-86
2022/06/16 12:05:42;;;;;;;6.10;1.70;;;;;;;28.58;32.80;97927.83;105769;1284;22619;-86
2022/06/16 12:08:12;;;;;;;5.60;2.20;;;;;;;28.77;31.83;97924.46;105914;1286;24264;-88
2022/06/16 12:10:54;;;;;;;5.30;1.90;;;;;;;28.54;31.46;97929.39;105649;1285;22760;-87
2022/06/16 12:14:01;;;;;;;6.80;2.10;;;;;;;28.26;32.17;97925.23;105665;1285;22647;-87
2022/06/16 12:16:42;;;;;;;4.90;2.00;;;;;;;28.25;32.36;97923.66;105655;1275;24390;-87
2022/06/16 12:19:38;;;;;;;4.10;1.80;;;;;;;28.09;32.39;97914.23;106249;1275;25744;-86
2022/06/16 12:27:04;;;;;;;3.80;2.40;;;;;;;27.34;31.41;97907.84;106298;1277;25285;-87
2022/06/16 12:29:36;;;;;;;5.50;2.30;;;;;;;27.06;32.07;97902.84;106260;1274;22548;-86
2022/06/16 12:32:34;;;;;;;5.60;2.10;;;;;;;26.98;32.25;97897.54;106270;1275;25242;-87
2022/06/16 12:35:26;;;;;;;6.60;2.30;;;;;;;26.93;32.51;97889.84;105952;1277;24376;-86
2022/06/16 12:37:59;;;;;;;3.30;2.30;;;;;;;26.89;32.52;97891.63;106105;1275;22584;-88
2022/06/16 12:40:52;;;;;;;4.30;2.50;;;;;;;26.82;32.49;97889.46;106135;1277;22721;-86
2022/06/16 12:43:34;;;;;;;4.80;2.70;;;;;;;26.75;32.73;97888.02;106200;1275;22564;-85
2022/06/16 12:46:09;;;;;;;4.50;2.40;;;;;;;26.77;32.44;97887.05;106208;1275;23429;-85
2022/06/16 12:49:06;;;;;;;4.90;2.40;;;;;;;26.72;32.92;97881.96;106301;1275;22624;-84